createdAt,value
2022-12-26T00:01:29.275Z,14.27
2022-12-26T00:03:58.573Z,13.37
2022-12-26T00:06:29.205Z,14.00
2022-12-26T00:09:00.412Z,14.17
2022-12-26T00:11:29.580Z,14.63
2022-12-26T00:14:00.262Z,13.80
2022-12-26T00:16:30.068Z,14.27
2022-12-26T00:18:58.879Z,13.60
2022-12-26T00:21:29.220Z,14.23
2022-12-26T00:24:00.865Z,13.63
2022-12-26T00:26:31.572Z,14.07
2022-12-26T00:29:00.514Z,16.30
2022-12-26T00:31:32.088Z,14.83
2022-12-26T00:34:01.264Z,15.77
2022-12-26T00:36:32.069Z,12.73
2022-12-26T00:39:03.748Z,14.67
2022-12-26T00:41:32.829Z,13.90
2022-12-26T00:44:01.582Z,15.27
2022-12-26T00:46:30.535Z,15.33
2022-12-26T00:48:59.249Z,14.80
2022-12-26T00:51:28.504Z,15.23
2022-12-26T00:53:57.398Z,16.03
2022-12-26T00:56:27.449Z,17.70
2022-12-26T00:58:56.226Z,16.13
2022-12-26T01:01:25.204Z,16.63
2022-12-26T01:03:54.088Z,16.67
2022-12-26T01:06:22.815Z,16.43
2022-12-26T01:08:51.415Z,16.57
2022-12-26T01:11:40.370Z,17.10
2022-12-26T01:14:12.700Z,17.73
2022-12-26T01:16:43.021Z,18.17
2022-12-26T01:19:12.882Z,16.67
2022-12-26T01:21:43.236Z,19.20
2022-12-26T01:24:13.040Z,18.37
2022-12-26T01:26:41.848Z,17.10
2022-12-26T01:29:11.843Z,18.10
2022-12-26T01:31:40.535Z,16.97
2022-12-26T01:34:09.722Z,16.57
2022-12-26T01:36:38.374Z,17.13
2022-12-26T01:39:07.010Z,15.40
2022-12-26T01:41:35.655Z,16.53
2022-12-26T01:44:06.642Z,15.57
2022-12-26T01:46:40.701Z,17.57
2022-12-26T01:49:14.651Z,17.40
2022-12-26T01:51:47.606Z,16.47
2022-12-26T01:54:40.572Z,17.23
2022-12-26T01:57:07.795Z,16.77
2022-12-26T01:59:39.943Z,17.77
2022-12-26T02:02:10.772Z,16.97
2022-12-26T02:05:02.566Z,16.97
2022-12-26T02:07:33.030Z,15.10
2022-12-26T02:10:01.998Z,18.70
2022-12-26T02:12:36.989Z,16.87
2022-12-26T02:15:10.008Z,15.93
2022-12-26T02:17:41.288Z,15.67
2022-12-26T02:20:20.007Z,14.93
2022-12-26T02:23:25.212Z,15.70
2022-12-26T02:26:35.347Z,14.60
2022-12-26T02:33:22.745Z,14.60
2022-12-26T02:36:11.077Z,15.07
2022-12-26T02:38:47.665Z,15.03
2022-12-26T02:41:26.097Z,14.70
2022-12-26T02:44:23.904Z,15.37
2022-12-26T02:47:06.042Z,17.00
2022-12-26T02:50:09.113Z,16.73
2022-12-26T02:53:05.777Z,16.13
2022-12-26T02:55:56.318Z,15.30
2022-12-26T02:58:44.724Z,15.90
2022-12-26T03:01:39.355Z,17.37
2022-12-26T03:04:31.039Z,17.77
2022-12-26T03:07:21.523Z,16.73
2022-12-26T03:10:10.813Z,15.77
2022-12-26T03:13:01.191Z,15.80
2022-12-26T03:15:53.381Z,17.50
2022-12-26T03:18:56.884Z,17.77
2022-12-26T03:21:13.011Z,17.50
2022-12-26T03:23:44.121Z,16.00
2022-12-26T03:26:37.566Z,17.33
2022-12-26T03:29:23.945Z,18.13
2022-12-26T03:31:52.701Z,18.97
2022-12-26T03:34:20.808Z,18.83
2022-12-26T03:37:17.844Z,19.37
2022-12-26T03:40:12.586Z,18.47
2022-12-26T03:43:07.535Z,16.53
2022-12-26T03:46:03.189Z,16.57
2022-12-26T03:48:55.836Z,16.50
2022-12-26T03:51:49.465Z,16.57
2022-12-26T03:54:43.318Z,18.30
2022-12-26T03:57:34.857Z,17.93
2022-12-26T04:00:26.888Z,16.30
2022-12-26T04:03:17.866Z,16.10
2022-12-26T04:06:06.909Z,18.30
2022-12-26T04:09:00.980Z,19.50
2022-12-26T04:11:47.530Z,15.77
2022-12-26T04:14:43.309Z,18.70
2022-12-26T04:17:38.765Z,16.17
2022-12-26T04:20:15.188Z,17.30
2022-12-26T04:23:08.794Z,17.37
2022-12-26T04:26:02.910Z,16.87
2022-12-26T04:28:48.967Z,18.07
2022-12-26T04:31:39.362Z,17.80
2022-12-26T04:34:32.568Z,17.70
2022-12-26T04:37:25.796Z,18.10
2022-12-26T04:40:14.711Z,18.47
2022-12-26T04:43:48.433Z,17.00
2022-12-26T04:45:52.282Z,19.00
2022-12-26T04:48:38.388Z,18.70
2022-12-26T04:51:08.598Z,18.67
2022-12-26T04:53:37.492Z,17.10
2022-12-26T04:56:06.571Z,17.13
2022-12-26T04:58:35.214Z,16.13
2022-12-26T05:01:18.047Z,17.03
2022-12-26T05:04:03.919Z,16.83
2022-12-26T05:06:51.486Z,16.57
2022-12-26T05:09:36.689Z,16.57
2022-12-26T05:12:08.244Z,15.87
2022-12-26T05:14:37.531Z,17.07
2022-12-26T05:17:25.335Z,17.03
2022-12-26T05:20:11.923Z,18.50
2022-12-26T05:23:02.677Z,18.03
2022-12-26T05:25:52.096Z,18.20
2022-12-26T05:28:39.007Z,17.60
2022-12-26T05:31:07.665Z,18.80
2022-12-26T05:33:53.645Z,19.07
2022-12-26T05:36:24.481Z,19.53
2022-12-26T05:38:56.244Z,19.33
2022-12-26T05:41:25.366Z,17.50
2022-12-26T05:43:54.075Z,18.43
2022-12-26T05:46:22.765Z,19.03
2022-12-26T05:48:51.604Z,19.10
2022-12-26T05:51:20.300Z,17.83
2022-12-26T05:53:49.498Z,18.80
2022-12-26T05:56:20.547Z,17.23
2022-12-26T05:58:49.221Z,17.13
2022-12-26T06:01:19.845Z,15.97
2022-12-26T06:03:50.025Z,15.60
2022-12-26T06:06:19.681Z,15.43
2022-12-26T06:08:49.503Z,15.73
2022-12-26T06:11:20.601Z,16.40
2022-12-26T06:13:49.206Z,14.23
2022-12-26T06:16:19.810Z,14.37
2022-12-26T06:18:49.903Z,13.17
2022-12-26T06:21:20.508Z,13.63
2022-12-26T06:23:49.559Z,13.83
2022-12-26T06:26:19.747Z,14.03
2022-12-26T06:28:48.552Z,13.60
2022-12-26T06:31:20.858Z,15.13
2022-12-26T06:33:50.688Z,14.30
2022-12-26T06:36:22.413Z,12.80
2022-12-26T06:38:51.619Z,13.13
2022-12-26T06:41:23.392Z,14.33
2022-12-26T06:43:52.451Z,11.97
2022-12-26T06:46:23.015Z,11.90
2022-12-26T06:48:52.374Z,11.07
2022-12-26T06:51:22.793Z,11.37
2022-12-26T06:53:52.494Z,11.77
2022-12-26T06:56:28.366Z,13.77
2022-12-26T06:59:00.981Z,15.13
2022-12-26T07:01:31.294Z,10.60
2022-12-26T07:04:01.165Z,12.80
2022-12-26T07:06:32.302Z,12.10
2022-12-26T07:09:03.237Z,12.13
2022-12-26T07:11:35.044Z,11.23
2022-12-26T07:14:04.616Z,12.80
2022-12-26T07:16:35.685Z,12.67
2022-12-26T07:19:04.675Z,13.70
2022-12-26T07:21:39.763Z,12.63
2022-12-26T07:24:14.705Z,12.30
2022-12-26T07:26:44.895Z,12.37
2022-12-26T07:29:14.104Z,13.90
2022-12-26T07:31:43.366Z,13.37
2022-12-26T07:34:12.034Z,12.40
2022-12-26T07:36:41.141Z,11.63
2022-12-26T07:39:10.020Z,13.03
2022-12-26T07:41:55.523Z,11.30
2022-12-26T07:44:25.718Z,12.57
2022-12-26T07:46:54.501Z,12.63
2022-12-26T07:49:23.279Z,12.97
2022-12-26T07:51:52.620Z,11.93
2022-12-26T07:54:21.691Z,12.43
2022-12-26T07:56:50.345Z,11.30
2022-12-26T07:59:19.542Z,13.30
2022-12-26T08:01:49.961Z,11.50
2022-12-26T08:04:18.689Z,10.53
2022-12-26T08:06:47.762Z,10.63
2022-12-26T08:09:21.905Z,11.13
2022-12-26T08:11:51.584Z,11.80
2022-12-26T08:14:22.308Z,11.50
2022-12-26T08:16:53.799Z,10.57
2022-12-26T08:19:22.530Z,10.93
2022-12-26T08:21:51.456Z,10.97
2022-12-26T08:24:20.311Z,10.90
2022-12-26T08:26:49.088Z,12.30
2022-12-26T08:29:17.693Z,11.33
2022-12-26T08:31:46.456Z,11.40
2022-12-26T08:34:16.524Z,12.87
2022-12-26T08:36:45.183Z,12.43
2022-12-26T08:39:13.790Z,11.93
2022-12-26T08:41:42.501Z,10.73
2022-12-26T08:44:29.039Z,13.73
2022-12-26T08:46:58.512Z,11.43
2022-12-26T08:49:28.568Z,10.47
2022-12-26T08:51:57.320Z,10.67
2022-12-26T08:54:25.942Z,10.77
2022-12-26T08:56:54.550Z,10.93
2022-12-26T08:59:23.304Z,10.23
2022-12-26T09:01:52.050Z,10.10
2022-12-26T09:04:20.807Z,10.60
2022-12-26T09:06:51.315Z,9.93
2022-12-26T09:09:19.944Z,10.47
2022-12-26T09:11:48.566Z,9.70
2022-12-26T09:14:17.211Z,10.13
2022-12-26T09:16:51.089Z,10.30
2022-12-26T09:19:21.088Z,10.30
2022-12-26T09:22:13.095Z,11.53
2022-12-26T09:24:41.864Z,11.30
2022-12-26T09:27:11.211Z,12.17
2022-12-26T09:29:40.092Z,10.70
2022-12-26T09:32:08.801Z,10.30
2022-12-26T09:34:37.497Z,10.53
2022-12-26T09:37:07.498Z,12.63
2022-12-26T09:39:36.777Z,10.87
2022-12-26T09:42:17.264Z,11.50
2022-12-26T09:44:54.652Z,10.77
2022-12-26T09:47:34.904Z,9.87
2022-12-26T09:50:12.139Z,11.97
2022-12-26T09:52:49.932Z,11.37
2022-12-26T09:55:30.746Z,9.57
2022-12-26T09:58:06.383Z,11.60
2022-12-26T10:00:40.346Z,9.63
2022-12-26T10:03:11.027Z,10.93
2022-12-26T10:05:45.473Z,10.07
2022-12-26T10:08:26.985Z,10.03
2022-12-26T10:11:02.212Z,9.73
2022-12-26T10:13:38.530Z,9.53
2022-12-26T10:16:12.529Z,10.13
2022-12-26T10:19:01.616Z,8.87
2022-12-26T10:21:40.798Z,8.70
2022-12-26T10:24:17.010Z,9.40
2022-12-26T10:26:50.673Z,8.97
2022-12-26T10:29:25.723Z,9.40
2022-12-26T10:31:58.035Z,9.40
2022-12-26T10:34:30.676Z,9.27
2022-12-26T10:37:02.422Z,9.10
2022-12-26T10:39:38.003Z,9.23
2022-12-26T10:42:14.304Z,9.17
2022-12-26T10:44:42.995Z,10.60
2022-12-26T10:47:23.132Z,10.57
2022-12-26T10:49:54.040Z,9.13
2022-12-26T10:52:28.896Z,8.77
2022-12-26T10:55:28.627Z,8.90
2022-12-26T10:57:52.530Z,8.60
2022-12-26T11:00:23.620Z,8.93
2022-12-26T11:03:07.649Z,7.63
2022-12-26T11:06:06.474Z,8.73
2022-12-26T11:08:36.233Z,6.63
2022-12-26T11:11:13.059Z,8.70
2022-12-26T11:13:47.901Z,8.00
2022-12-26T11:16:26.779Z,8.00
2022-12-26T11:18:56.047Z,8.20
2022-12-26T11:21:26.351Z,7.40
2022-12-26T11:24:17.084Z,7.27
2022-12-26T11:26:49.440Z,8.40
2022-12-26T11:29:20.992Z,8.43
2022-12-26T11:31:54.801Z,7.70
2022-12-26T11:34:32.775Z,6.63
2022-12-26T11:37:02.149Z,9.03
2022-12-26T11:39:33.733Z,7.73
2022-12-26T11:42:11.086Z,8.17
2022-12-26T11:44:45.443Z,7.33
2022-12-26T11:47:16.219Z,7.03
2022-12-26T11:49:53.442Z,7.60
2022-12-26T11:52:39.555Z,7.63
2022-12-26T11:55:37.326Z,8.83
2022-12-26T11:58:20.952Z,8.50
2022-12-26T12:01:17.916Z,7.37
2022-12-26T12:03:49.849Z,7.43
2022-12-26T12:06:34.746Z,9.40
2022-12-26T12:09:10.984Z,7.83
2022-12-26T12:11:47.046Z,8.10
2022-12-26T12:14:32.636Z,8.37
2022-12-26T12:17:13.245Z,8.63
2022-12-26T12:19:53.648Z,8.53
2022-12-26T12:22:50.801Z,7.83
2022-12-26T12:25:33.209Z,7.10
2022-12-26T12:28:11.711Z,7.50
2022-12-26T12:30:49.514Z,9.27
2022-12-26T12:33:36.595Z,7.93
2022-12-26T12:36:11.019Z,7.57
2022-12-26T12:39:02.574Z,7.90
2022-12-26T12:42:07.478Z,7.50
2022-12-26T12:44:56.591Z,7.87
2022-12-26T12:47:40.990Z,8.03
2022-12-26T12:50:19.744Z,8.73
2022-12-26T12:52:56.901Z,7.40
2022-12-26T12:55:40.793Z,7.67
2022-12-26T12:58:18.934Z,7.77
2022-12-26T13:00:53.060Z,9.03
2022-12-26T13:03:29.241Z,7.80
2022-12-26T13:06:05.883Z,7.20
2022-12-26T13:08:38.647Z,7.70
2022-12-26T13:11:12.072Z,10.33
2022-12-26T13:13:48.619Z,8.40
2022-12-26T13:16:26.654Z,7.53
2022-12-26T13:19:00.856Z,8.27
2022-12-26T13:21:32.628Z,7.73
2022-12-26T13:24:23.959Z,9.20
2022-12-26T13:26:59.235Z,6.77
2022-12-26T13:29:37.025Z,7.00
2022-12-26T13:32:15.927Z,8.00
2022-12-26T13:34:46.647Z,8.00
2022-12-26T13:37:48.657Z,8.70
2022-12-26T13:40:19.287Z,8.77
2022-12-26T13:43:09.806Z,7.53
2022-12-26T13:45:59.409Z,6.90
2022-12-26T13:49:08.212Z,7.17
2022-12-26T13:51:47.480Z,8.67
2022-12-26T13:54:17.665Z,8.97
2022-12-26T13:57:24.681Z,7.53
2022-12-26T14:00:05.251Z,7.27
2022-12-26T14:03:22.194Z,8.07
2022-12-26T14:06:14.442Z,7.97
2022-12-26T14:08:58.164Z,7.80
2022-12-26T14:11:44.093Z,8.23
2022-12-26T14:14:24.810Z,9.33
2022-12-26T14:17:00.128Z,7.83
2022-12-26T14:19:43.770Z,7.87
2022-12-26T14:22:19.231Z,8.40
2022-12-26T14:25:01.570Z,7.53
2022-12-26T14:27:36.600Z,7.57
2022-12-26T14:30:22.554Z,8.27
2022-12-26T14:33:11.381Z,8.07
2022-12-26T14:35:54.185Z,9.23
2022-12-26T14:38:33.363Z,9.63
2022-12-26T14:41:06.923Z,8.60
2022-12-26T14:43:37.425Z,8.47
2022-12-26T14:46:31.128Z,7.93
2022-12-26T14:49:01.283Z,7.07
2022-12-26T14:51:41.225Z,7.20
2022-12-26T14:54:36.190Z,7.63
2022-12-26T14:57:37.914Z,7.37
2022-12-26T15:00:27.984Z,7.63
2022-12-26T15:03:37.123Z,6.90
2022-12-26T15:06:51.564Z,7.67
2022-12-26T15:10:03.133Z,9.00
2022-12-26T15:13:07.035Z,6.57
2022-12-26T15:15:48.076Z,7.80
2022-12-26T15:18:59.272Z,7.70
2022-12-26T15:21:54.280Z,6.87
2022-12-26T15:28:15.883Z,7.27
2022-12-26T15:31:12.763Z,6.50
2022-12-26T15:33:47.764Z,7.97
2022-12-26T15:36:23.831Z,8.57
2022-12-26T15:38:59.660Z,7.63
2022-12-26T15:41:36.685Z,7.70
2022-12-26T15:44:18.872Z,7.73
2022-12-26T15:46:54.756Z,7.60
2022-12-26T15:49:45.128Z,8.30
2022-12-26T15:52:23.573Z,9.57
2022-12-26T15:55:31.526Z,8.93
2022-12-26T15:58:07.141Z,7.20
2022-12-26T16:00:39.484Z,8.20
2022-12-26T16:03:23.503Z,7.23
2022-12-26T16:06:00.305Z,7.47
2022-12-26T16:08:59.494Z,6.87
2022-12-26T16:11:32.101Z,7.57
2022-12-26T16:14:03.458Z,7.63
2022-12-26T16:16:35.241Z,7.00
2022-12-26T16:19:18.613Z,7.20
2022-12-26T16:22:08.921Z,8.17
2022-12-26T16:24:40.393Z,7.97
2022-12-26T16:27:10.817Z,8.10
2022-12-26T16:29:51.103Z,7.73
2022-12-26T16:32:22.034Z,6.40
2022-12-26T16:34:52.326Z,6.83
2022-12-26T16:37:24.443Z,7.47
2022-12-26T16:40:18.100Z,6.20
2022-12-26T16:42:58.682Z,7.53
2022-12-26T16:45:30.094Z,6.40
2022-12-26T16:47:59.522Z,6.83
2022-12-26T16:50:32.949Z,7.30
2022-12-26T16:53:14.435Z,6.73
2022-12-26T16:55:46.069Z,7.90
2022-12-26T16:58:19.620Z,6.43
2022-12-26T17:01:04.600Z,6.73
2022-12-26T17:03:45.137Z,7.00
2022-12-26T17:06:18.300Z,6.50
2022-12-26T17:08:50.609Z,6.80
2022-12-26T17:11:27.019Z,6.70
2022-12-26T17:13:56.701Z,5.07
2022-12-26T17:16:27.483Z,6.87
2022-12-26T17:18:57.668Z,5.57
2022-12-26T17:21:32.360Z,6.00
2022-12-26T17:24:31.375Z,6.47
2022-12-26T17:27:23.452Z,5.93
2022-12-26T17:29:56.565Z,6.07
2022-12-26T17:32:36.527Z,6.43
2022-12-26T17:35:08.557Z,7.37
2022-12-26T17:37:38.777Z,7.07
2022-12-26T17:40:21.081Z,8.07
2022-12-26T17:42:52.215Z,7.53
2022-12-26T17:45:23.400Z,8.83
2022-12-26T17:47:52.889Z,7.97
2022-12-26T17:50:22.811Z,7.77
2022-12-26T17:52:53.055Z,7.30
2022-12-26T17:55:27.055Z,8.23
2022-12-26T17:57:55.828Z,8.67
2022-12-26T18:00:26.998Z,8.63
2022-12-26T18:02:56.400Z,7.93
2022-12-26T18:05:25.193Z,7.53
2022-12-26T18:07:57.055Z,6.77
2022-12-26T18:10:28.656Z,7.63
2022-12-26T18:12:58.145Z,10.27
2022-12-26T18:15:28.545Z,9.97
2022-12-26T18:17:58.273Z,6.43
2022-12-26T18:20:29.946Z,8.40
2022-12-26T18:23:00.215Z,8.13
2022-12-26T18:25:28.947Z,9.03
2022-12-26T18:27:57.825Z,7.97
2022-12-26T18:30:27.872Z,8.20
2022-12-26T18:32:56.781Z,8.47
2022-12-26T18:35:25.631Z,7.20
2022-12-26T18:37:54.854Z,6.57
2022-12-26T18:40:32.882Z,6.73
2022-12-26T18:43:01.954Z,6.73
2022-12-26T18:45:31.426Z,8.93
2022-12-26T18:48:00.490Z,7.10
2022-12-26T18:50:31.202Z,8.30
2022-12-26T18:52:59.970Z,6.77
2022-12-26T18:55:30.030Z,7.60
2022-12-26T18:58:01.304Z,7.13
2022-12-26T19:00:30.238Z,8.10
2022-12-26T19:02:59.284Z,6.43
2022-12-26T19:05:30.895Z,9.27
2022-12-26T19:08:00.433Z,5.97
2022-12-26T19:10:35.110Z,7.37
2022-12-26T19:13:06.339Z,7.63
2022-12-26T19:15:36.320Z,7.97
2022-12-26T19:18:05.657Z,7.40
2022-12-26T19:20:40.478Z,6.83
2022-12-26T19:24:07.176Z,8.07
2022-12-26T19:26:39.238Z,7.70
2022-12-26T19:29:07.876Z,7.47
2022-12-26T19:31:36.509Z,7.47
2022-12-26T19:34:25.853Z,6.90
2022-12-26T19:36:56.827Z,5.50
2022-12-26T19:39:25.778Z,6.60
2022-12-26T19:41:56.020Z,6.40
2022-12-26T19:44:24.620Z,6.13
2022-12-26T19:47:12.110Z,5.10
2022-12-26T19:49:41.762Z,6.67
2022-12-26T19:52:11.102Z,7.07
2022-12-26T19:54:39.929Z,5.90
2022-12-26T19:57:10.113Z,6.13
2022-12-26T19:59:38.727Z,6.47
2022-12-26T20:02:07.535Z,6.47
2022-12-26T20:04:36.258Z,7.00
2022-12-26T20:07:04.906Z,6.20
2022-12-26T20:09:33.607Z,6.43
2022-12-26T20:12:03.010Z,6.10
2022-12-26T20:14:33.541Z,6.60
2022-12-26T20:17:05.556Z,6.47
2022-12-26T20:19:36.023Z,6.67
2022-12-26T20:22:05.279Z,6.87
2022-12-26T20:24:34.382Z,6.83
2022-12-26T20:27:03.872Z,5.30
2022-12-26T20:29:34.012Z,7.60
2022-12-26T20:32:02.665Z,5.77
2022-12-26T20:34:31.393Z,6.90
2022-12-26T20:37:00.098Z,5.97
2022-12-26T20:39:28.834Z,5.73
2022-12-26T20:41:57.506Z,5.77
2022-12-26T20:44:26.385Z,7.23
2022-12-26T20:46:56.442Z,5.57
2022-12-26T20:49:25.082Z,6.53
2022-12-26T20:51:53.676Z,5.80
2022-12-26T20:54:22.744Z,7.97
2022-12-26T20:56:51.300Z,5.47
2022-12-26T20:59:20.453Z,5.43
2022-12-26T21:01:49.128Z,5.83
2022-12-26T21:04:22.124Z,6.97
2022-12-26T21:06:51.307Z,6.03
2022-12-26T21:09:19.928Z,5.93
2022-12-26T21:11:48.550Z,5.13
2022-12-26T21:14:18.863Z,6.10
2022-12-26T21:16:49.975Z,6.57
2022-12-26T21:19:21.010Z,6.10
2022-12-26T21:21:52.347Z,6.13
2022-12-26T21:24:24.863Z,8.07
2022-12-26T21:26:54.070Z,6.07
2022-12-26T21:29:24.970Z,9.33
2022-12-26T21:31:53.774Z,7.07
2022-12-26T21:34:26.115Z,6.97
2022-12-26T21:37:13.536Z,7.30
2022-12-26T21:39:42.554Z,7.47
2022-12-26T21:42:11.709Z,7.17
2022-12-26T21:44:40.604Z,6.23
2022-12-26T21:47:09.461Z,7.47
2022-12-26T21:49:39.441Z,6.60
2022-12-26T21:52:08.991Z,7.20
2022-12-26T21:54:55.071Z,7.17
2022-12-26T21:57:24.105Z,6.70
2022-12-26T21:59:59.502Z,6.53
2022-12-26T22:02:47.956Z,6.30
2022-12-26T22:05:19.699Z,6.30
2022-12-26T22:07:48.741Z,6.87
2022-12-26T22:10:31.347Z,6.50
2022-12-26T22:13:00.726Z,7.23
2022-12-26T22:15:46.965Z,8.70
2022-12-26T22:18:15.832Z,6.47
2022-12-26T22:20:46.216Z,7.40
2022-12-26T22:23:15.236Z,6.07
2022-12-26T22:25:44.234Z,6.13
2022-12-26T22:28:12.909Z,6.67
2022-12-26T22:30:48.537Z,6.30
2022-12-26T22:33:17.421Z,6.57
2022-12-26T22:35:49.030Z,7.33
2022-12-26T22:38:18.081Z,6.33
2022-12-26T22:40:55.208Z,7.33
2022-12-26T22:43:24.773Z,8.00
2022-12-26T22:45:53.775Z,5.93
2022-12-26T22:48:23.629Z,7.50
2022-12-26T22:50:55.949Z,7.30
2022-12-26T22:53:25.898Z,7.33
2022-12-26T22:55:59.027Z,6.90
2022-12-26T22:58:28.438Z,7.20
2022-12-26T23:00:57.729Z,8.00
2022-12-26T23:03:28.182Z,7.53
2022-12-26T23:05:59.243Z,6.00
2022-12-26T23:08:29.470Z,7.43
2022-12-26T23:11:00.911Z,6.27
2022-12-26T23:13:30.859Z,6.80
2022-12-26T23:16:04.883Z,6.73
2022-12-26T23:18:56.505Z,7.57
2022-12-26T23:21:43.070Z,8.00
2022-12-26T23:24:17.457Z,8.07
2022-12-26T23:26:48.739Z,7.17
2022-12-26T23:29:37.077Z,7.83
2022-12-26T23:32:06.692Z,6.30
2022-12-26T23:34:35.432Z,7.87
2022-12-26T23:37:05.477Z,6.60
2022-12-26T23:39:34.086Z,7.37
2022-12-26T23:42:02.681Z,5.63
2022-12-26T23:44:32.306Z,8.77
2022-12-26T23:47:01.021Z,6.13
2022-12-26T23:49:31.317Z,6.73
2022-12-26T23:52:00.043Z,6.23
2022-12-26T23:54:30.046Z,6.87
2022-12-26T23:56:58.750Z,7.17
2022-12-26T23:59:27.558Z,7.27
